createdAt,value
2022-10-29T00:00:22.765Z,99.99
2022-10-29T00:01:22.414Z,99.99
2022-10-29T00:02:22.282Z,99.99
2022-10-29T00:03:22.350Z,99.99
2022-10-29T00:04:22.255Z,99.99
2022-10-29T00:05:22.238Z,99.99
2022-10-29T00:06:22.280Z,99.99
2022-10-29T00:07:22.253Z,99.99
2022-10-29T00:08:22.208Z,99.99
2022-10-29T00:09:22.232Z,99.99
2022-10-29T00:10:22.200Z,99.99
2022-10-29T00:11:22.157Z,99.99
2022-10-29T00:12:22.188Z,99.99
2022-10-29T00:13:22.204Z,99.99
2022-10-29T00:14:22.117Z,99.99
2022-10-29T00:15:22.106Z,99.99
2022-10-29T00:16:22.164Z,99.99
2022-10-29T00:17:22.079Z,99.99
2022-10-29T00:18:22.086Z,99.99
2022-10-29T00:19:22.072Z,99.99
2022-10-29T00:20:22.064Z,99.99
2022-10-29T00:21:22.037Z,99.99
2022-10-29T00:22:22.073Z,99.99
2022-10-29T00:23:22.012Z,99.99
2022-10-29T00:24:21.963Z,99.99
2022-10-29T00:25:21.979Z,99.99
2022-10-29T00:26:21.987Z,99.99
2022-10-29T00:27:21.962Z,99.99
2022-10-29T00:28:21.979Z,99.99
2022-10-29T00:29:21.916Z,99.99
2022-10-29T00:30:21.904Z,99.99
2022-10-29T00:31:21.894Z,99.99
2022-10-29T00:32:21.862Z,99.99
2022-10-29T00:33:21.882Z,99.99
2022-10-29T00:34:21.867Z,99.99
2022-10-29T00:35:21.832Z,99.99
2022-10-29T00:36:21.878Z,99.99
2022-10-29T00:37:21.780Z,99.99
2022-10-29T00:38:21.766Z,99.99
2022-10-29T00:39:21.795Z,99.99
2022-10-29T00:40:21.797Z,99.99
2022-10-29T00:41:21.788Z,99.99
2022-10-29T00:42:21.788Z,99.99
2022-10-29T00:43:21.744Z,99.99
2022-10-29T00:44:21.712Z,99.99
2022-10-29T00:45:21.700Z,99.99
2022-10-29T00:46:21.687Z,99.99
2022-10-29T00:47:21.679Z,99.99
2022-10-29T00:48:21.669Z,99.99
2022-10-29T00:49:21.619Z,99.99
2022-10-29T00:50:21.620Z,99.99
2022-10-29T00:51:21.618Z,99.99
2022-10-29T00:52:21.605Z,99.99
2022-10-29T00:53:21.638Z,99.99
2022-10-29T00:54:21.567Z,99.99
2022-10-29T00:55:21.587Z,99.99
2022-10-29T00:56:21.563Z,99.99
2022-10-29T00:57:21.535Z,99.99
2022-10-29T00:58:21.506Z,99.99
2022-10-29T00:59:21.518Z,99.99
2022-10-29T01:00:21.489Z,99.99
2022-10-29T01:01:21.563Z,99.99
2022-10-29T01:02:21.630Z,99.99
2022-10-29T01:03:21.483Z,99.99
2022-10-29T01:04:21.476Z,99.99
2022-10-29T01:05:21.465Z,99.99
2022-10-29T01:06:21.406Z,99.99
2022-10-29T01:07:21.428Z,99.99
2022-10-29T01:08:21.368Z,99.99
2022-10-29T01:09:21.386Z,99.99
2022-10-29T01:10:21.396Z,99.99
2022-10-29T01:11:21.327Z,99.99
2022-10-29T01:12:21.340Z,99.99
2022-10-29T01:13:21.306Z,99.99
2022-10-29T01:14:21.297Z,99.99
2022-10-29T01:15:21.282Z,99.99
2022-10-29T01:16:21.347Z,99.99
2022-10-29T01:17:21.265Z,99.99
2022-10-29T01:18:21.289Z,99.99
2022-10-29T01:19:21.278Z,99.99
2022-10-29T01:20:21.250Z,99.99
2022-10-29T01:21:21.218Z,99.99
2022-10-29T01:22:21.240Z,99.99
2022-10-29T01:23:21.179Z,99.99
2022-10-29T01:24:21.212Z,99.99
2022-10-29T01:25:21.148Z,99.99
2022-10-29T01:26:21.156Z,99.99
2022-10-29T01:27:21.127Z,99.99
2022-10-29T01:28:21.146Z,99.99
2022-10-29T01:29:21.123Z,99.99
2022-10-29T01:30:21.144Z,99.99
2022-10-29T01:31:21.074Z,99.99
2022-10-29T01:32:21.068Z,99.99
2022-10-29T01:33:21.097Z,99.99
2022-10-29T01:34:21.072Z,99.99
2022-10-29T01:35:21.037Z,99.99
2022-10-29T01:36:20.993Z,99.99
2022-10-29T01:37:21.068Z,99.99
2022-10-29T01:38:20.977Z,99.99
2022-10-29T01:39:20.982Z,99.99
2022-10-29T01:40:20.955Z,99.99
2022-10-29T01:41:20.985Z,99.99
2022-10-29T01:42:20.935Z,99.99
2022-10-29T01:43:20.921Z,99.99
2022-10-29T01:44:20.950Z,99.99
2022-10-29T01:45:20.882Z,99.99
2022-10-29T01:46:20.897Z,99.99
2022-10-29T01:47:20.868Z,99.99
2022-10-29T01:48:20.875Z,99.99
2022-10-29T01:49:20.867Z,99.99
2022-10-29T01:50:20.834Z,99.99
2022-10-29T01:51:20.877Z,99.99
2022-10-29T01:52:20.801Z,99.99
2022-10-29T01:53:20.811Z,99.99
2022-10-29T01:54:20.798Z,99.99
2022-10-29T01:55:20.762Z,99.99
2022-10-29T01:56:20.737Z,99.99
2022-10-29T01:57:20.711Z,99.99
2022-10-29T01:58:20.723Z,99.99
2022-10-29T01:59:35.338Z,99.99
2022-10-29T02:00:21.746Z,99.99
2022-10-29T02:01:20.810Z,99.99
2022-10-29T02:02:20.630Z,99.99
2022-10-29T02:03:20.684Z,99.99
2022-10-29T02:04:20.644Z,99.99
2022-10-29T02:05:20.633Z,99.99
2022-10-29T02:06:20.620Z,99.99
2022-10-29T02:07:20.566Z,99.99
2022-10-29T02:08:20.567Z,99.99
2022-10-29T02:09:20.592Z,99.99
2022-10-29T02:10:20.565Z,99.99
2022-10-29T02:11:20.542Z,99.99
2022-10-29T02:12:20.541Z,99.99
2022-10-29T02:13:20.525Z,99.99
2022-10-29T02:14:20.476Z,99.99
2022-10-29T02:15:20.479Z,99.99
2022-10-29T02:16:20.460Z,99.99
2022-10-29T02:17:20.504Z,99.99
2022-10-29T02:18:20.422Z,99.99
2022-10-29T02:19:20.440Z,99.99
2022-10-29T02:20:20.418Z,99.99
2022-10-29T02:21:20.393Z,99.99
2022-10-29T02:22:20.386Z,99.99
2022-10-29T02:23:20.367Z,99.99
2022-10-29T02:24:20.370Z,99.99
2022-10-29T02:25:20.443Z,99.99
2022-10-29T02:26:20.366Z,99.99
2022-10-29T02:27:20.334Z,99.99
2022-10-29T02:29:20.301Z,99.99
2022-10-29T02:30:20.331Z,99.99
2022-10-29T02:31:20.248Z,99.99
2022-10-29T02:32:20.268Z,99.99
2022-10-29T02:33:20.225Z,99.99
2022-10-29T02:34:20.233Z,99.99
2022-10-29T02:35:20.284Z,99.99
2022-10-29T02:36:20.181Z,99.99
2022-10-29T02:37:20.301Z,99.99
2022-10-29T02:38:20.183Z,99.99
2022-10-29T02:39:20.203Z,99.99
2022-10-29T02:40:20.181Z,99.99
2022-10-29T02:41:20.149Z,99.99
2022-10-29T02:42:20.132Z,99.99
2022-10-29T02:44:20.127Z,99.99
2022-10-29T02:45:20.108Z,99.99
2022-10-29T02:46:20.091Z,99.99
2022-10-29T02:47:20.074Z,99.99
2022-10-29T02:48:20.025Z,99.99
2022-10-29T02:49:20.035Z,99.99
2022-10-29T02:50:20.009Z,99.99
2022-10-29T02:51:20.014Z,99.99
2022-10-29T02:52:19.986Z,99.99
2022-10-29T02:53:19.958Z,99.99
2022-10-29T02:54:19.959Z,99.99
2022-10-29T02:55:19.984Z,99.99
2022-10-29T02:56:19.924Z,99.99
2022-10-29T02:57:19.959Z,99.99
2022-10-29T02:59:19.871Z,99.99
2022-10-29T03:00:19.917Z,99.99
2022-10-29T03:01:19.990Z,99.99
2022-10-29T03:02:19.925Z,99.99
2022-10-29T03:03:19.825Z,99.99
2022-10-29T03:04:19.843Z,99.99
2022-10-29T03:05:19.814Z,99.99
2022-10-29T03:06:19.838Z,99.99
2022-10-29T03:07:19.788Z,99.99
2022-10-29T03:08:19.793Z,99.99
2022-10-29T03:09:19.762Z,99.99
2022-10-29T03:10:19.733Z,99.99
2022-10-29T03:11:19.745Z,99.99
2022-10-29T03:12:19.708Z,99.99
2022-10-29T03:13:19.700Z,99.99
2022-10-29T03:14:19.695Z,99.99
2022-10-29T03:15:19.703Z,99.99
2022-10-29T03:16:19.639Z,99.99
2022-10-29T03:17:19.640Z,99.99
2022-10-29T03:18:19.670Z,99.99
2022-10-29T03:19:19.623Z,99.99
2022-10-29T03:20:19.636Z,99.99
2022-10-29T03:21:19.667Z,99.99
2022-10-29T03:22:19.619Z,99.99
2022-10-29T03:23:19.576Z,99.99
2022-10-29T03:24:19.581Z,99.99
2022-10-29T03:25:19.559Z,99.99
2022-10-29T03:26:19.508Z,99.99
2022-10-29T03:27:19.561Z,99.99
2022-10-29T03:28:19.522Z,99.99
2022-10-29T03:29:19.510Z,99.99
2022-10-29T03:30:19.517Z,99.99
2022-10-29T03:31:19.472Z,99.99
2022-10-29T03:32:19.442Z,99.99
2022-10-29T03:33:19.481Z,99.99
2022-10-29T03:34:27.053Z,99.99
2022-10-29T03:35:19.361Z,99.99
2022-10-29T03:36:19.446Z,99.99
2022-10-29T03:37:19.373Z,99.99
2022-10-29T03:38:19.395Z,99.99
2022-10-29T03:39:19.311Z,99.99
2022-10-29T03:40:19.326Z,99.99
2022-10-29T03:41:19.297Z,99.99
2022-10-29T03:42:19.254Z,99.99
2022-10-29T03:43:19.279Z,99.99
2022-10-29T03:44:19.289Z,99.99
2022-10-29T03:45:19.227Z,99.99
2022-10-29T03:46:19.229Z,99.99
2022-10-29T03:47:19.214Z,99.99
2022-10-29T03:48:19.215Z,99.99
2022-10-29T03:49:19.185Z,99.99
2022-10-29T03:50:19.178Z,99.99
2022-10-29T03:51:19.164Z,99.99
2022-10-29T03:52:19.147Z,99.99
2022-10-29T03:53:19.149Z,99.99
2022-10-29T03:54:19.094Z,99.99
2022-10-29T03:55:19.108Z,99.99
2022-10-29T03:56:19.105Z,99.99
2022-10-29T03:57:19.097Z,99.99
2022-10-29T03:58:19.099Z,99.99
2022-10-29T03:59:19.034Z,99.99
2022-10-29T04:00:19.036Z,99.99
2022-10-29T04:01:19.103Z,99.99
2022-10-29T04:02:19.078Z,99.99
2022-10-29T04:03:19.017Z,99.99
2022-10-29T04:04:18.991Z,99.99
2022-10-29T04:05:18.972Z,99.99
2022-10-29T04:06:18.968Z,99.99
2022-10-29T04:07:18.939Z,99.99
2022-10-29T04:08:18.975Z,99.99
2022-10-29T04:09:18.913Z,99.99
2022-10-29T04:10:18.886Z,99.99
2022-10-29T04:11:18.890Z,99.99
2022-10-29T04:12:18.863Z,99.99
2022-10-29T04:13:18.852Z,99.99
2022-10-29T04:14:18.849Z,99.99
2022-10-29T04:15:18.820Z,99.99
2022-10-29T04:16:18.825Z,99.99
2022-10-29T04:17:18.813Z,99.99
2022-10-29T04:18:18.789Z,99.99
2022-10-29T04:19:18.780Z,99.99
2022-10-29T04:20:41.869Z,99.99
2022-10-29T04:28:28.961Z,99.99
2022-10-29T04:29:19.675Z,99.99
2022-10-29T04:30:18.635Z,99.99
2022-10-29T04:31:18.633Z,99.99
2022-10-29T04:32:18.604Z,99.99
2022-10-29T04:33:18.591Z,99.99
2022-10-29T04:34:18.580Z,99.99
2022-10-29T04:35:18.604Z,99.99
2022-10-29T04:36:18.542Z,99.99
2022-10-29T04:37:18.544Z,99.99
2022-10-29T04:38:18.556Z,99.99
2022-10-29T04:39:21.008Z,99.99
2022-10-29T04:40:19.549Z,99.99
2022-10-29T04:41:18.566Z,99.99
2022-10-29T04:42:18.480Z,99.99
2022-10-29T04:43:18.445Z,99.99
2022-10-29T04:44:18.466Z,99.99
2022-10-29T04:45:18.498Z,99.99
2022-10-29T04:46:18.411Z,99.99
2022-10-29T04:47:18.449Z,99.99
2022-10-29T04:48:18.378Z,99.99
2022-10-29T04:49:18.439Z,99.99
2022-10-29T04:50:18.421Z,99.99
2022-10-29T04:51:18.332Z,99.99
2022-10-29T04:52:19.017Z,99.99
2022-10-29T04:53:18.663Z,99.99
2022-10-29T04:54:18.301Z,99.99
2022-10-29T04:55:18.299Z,99.99
2022-10-29T04:56:18.294Z,99.99
2022-10-29T04:57:18.334Z,99.99
2022-10-29T04:58:18.334Z,99.99
2022-10-29T04:59:18.245Z,99.99
2022-10-29T05:00:18.965Z,99.99
2022-10-29T05:01:18.312Z,99.99
2022-10-29T05:02:18.180Z,99.99
2022-10-29T05:03:18.215Z,99.99
2022-10-29T05:04:18.164Z,99.99
2022-10-29T05:05:18.152Z,99.99
2022-10-29T05:06:18.132Z,99.99
2022-10-29T05:07:18.129Z,99.99
2022-10-29T05:08:18.145Z,99.99
2022-10-29T05:09:18.103Z,99.99
2022-10-29T05:10:18.118Z,99.99
2022-10-29T05:11:18.088Z,99.99
2022-10-29T05:12:18.078Z,99.99
2022-10-29T05:13:18.076Z,99.99
2022-10-29T05:14:18.058Z,99.99
2022-10-29T05:15:18.063Z,99.99
2022-10-29T05:16:18.013Z,99.99
2022-10-29T05:17:18.003Z,99.99
2022-10-29T05:18:18.005Z,99.99
2022-10-29T05:19:17.982Z,99.99
2022-10-29T05:20:17.959Z,99.99
2022-10-29T05:21:17.945Z,99.99
2022-10-29T05:22:17.925Z,99.99
2022-10-29T05:23:17.918Z,99.99
2022-10-29T05:24:17.893Z,99.99
2022-10-29T05:25:17.943Z,99.99
2022-10-29T05:26:17.865Z,99.99
2022-10-29T05:27:17.866Z,99.99
2022-10-29T05:28:17.829Z,99.99
2022-10-29T05:29:17.854Z,99.99
2022-10-29T05:30:17.828Z,99.99
2022-10-29T05:31:17.844Z,99.99
2022-10-29T05:32:17.781Z,99.99
2022-10-29T05:33:17.821Z,99.99
2022-10-29T05:34:17.817Z,99.99
2022-10-29T05:35:17.790Z,99.99
2022-10-29T05:36:17.878Z,99.99
2022-10-29T05:37:17.770Z,99.99
2022-10-29T05:38:17.696Z,99.99
2022-10-29T05:39:17.716Z,99.99
2022-10-29T05:40:17.701Z,99.99
2022-10-29T05:41:17.674Z,99.99
2022-10-29T05:42:17.641Z,99.99
2022-10-29T05:43:17.638Z,99.99
2022-10-29T05:44:17.656Z,99.99
2022-10-29T05:45:17.634Z,99.99
2022-10-29T05:46:17.613Z,99.99
2022-10-29T05:47:17.588Z,99.99
2022-10-29T05:48:17.622Z,99.99
2022-10-29T05:49:17.591Z,99.99
2022-10-29T05:50:17.543Z,99.99
2022-10-29T05:51:17.547Z,99.99
2022-10-29T05:52:17.555Z,99.99
2022-10-29T05:53:17.517Z,99.99
2022-10-29T05:54:17.494Z,99.99
2022-10-29T05:55:17.557Z,99.99
2022-10-29T05:56:17.470Z,99.99
2022-10-29T05:57:17.451Z,99.99
2022-10-29T05:58:17.446Z,99.99
2022-10-29T05:59:17.434Z,99.99
2022-10-29T06:00:17.426Z,99.99
2022-10-29T06:01:17.426Z,99.99
2022-10-29T06:02:17.471Z,99.99
2022-10-29T06:03:17.418Z,99.99
2022-10-29T06:04:17.379Z,99.99
2022-10-29T06:05:17.355Z,99.99
2022-10-29T06:06:17.463Z,99.99
2022-10-29T06:07:17.334Z,99.99
2022-10-29T06:08:17.305Z,99.99
2022-10-29T06:09:17.305Z,99.99
2022-10-29T06:10:17.290Z,99.99
2022-10-29T06:11:17.258Z,99.99
2022-10-29T06:12:17.298Z,99.99
2022-10-29T06:13:17.245Z,99.99
2022-10-29T06:14:17.233Z,99.99
2022-10-29T06:15:17.219Z,99.99
2022-10-29T06:16:17.219Z,99.99
2022-10-29T06:17:17.228Z,99.99
2022-10-29T06:18:17.196Z,99.99
2022-10-29T06:19:17.527Z,99.99
2022-10-29T06:20:17.201Z,99.99
2022-10-29T06:21:17.164Z,99.99
2022-10-29T06:22:17.209Z,99.99
2022-10-29T06:23:17.115Z,99.99
2022-10-29T06:24:17.083Z,99.99
2022-10-29T06:25:17.094Z,99.99
2022-10-29T06:26:17.136Z,99.99
2022-10-29T06:27:17.078Z,99.99
2022-10-29T06:28:17.036Z,99.99
2022-10-29T06:29:17.315Z,99.99
2022-10-29T06:30:16.994Z,99.99
2022-10-29T06:31:17.078Z,99.99
2022-10-29T06:32:16.979Z,99.99
2022-10-29T06:33:16.983Z,99.99
2022-10-29T06:34:16.962Z,99.99
2022-10-29T06:35:16.982Z,99.99
2022-10-29T06:36:16.951Z,99.99
2022-10-29T06:37:16.921Z,99.99
2022-10-29T06:38:16.924Z,99.99
2022-10-29T06:39:16.889Z,99.99
2022-10-29T06:40:16.890Z,99.99
2022-10-29T06:41:16.864Z,99.99
2022-10-29T06:42:16.886Z,99.99
2022-10-29T06:43:16.999Z,99.99
2022-10-29T06:44:16.834Z,99.99
2022-10-29T06:45:16.809Z,99.99
2022-10-29T06:46:16.827Z,99.99
2022-10-29T06:47:16.831Z,99.99
2022-10-29T06:48:21.773Z,99.99
2022-10-29T06:49:17.780Z,99.99
2022-10-29T06:50:16.755Z,99.99
2022-10-29T06:51:16.816Z,99.99
2022-10-29T06:52:17.117Z,99.99
2022-10-29T06:53:16.699Z,99.99
2022-10-29T06:54:16.695Z,99.99
2022-10-29T06:55:16.717Z,99.99
2022-10-29T06:56:16.710Z,99.99
2022-10-29T06:57:16.699Z,99.99
2022-10-29T06:58:16.651Z,99.99
2022-10-29T06:59:16.634Z,99.99
2022-10-29T07:00:16.635Z,99.99
2022-10-29T07:01:16.873Z,99.99
2022-10-29T07:02:16.714Z,99.99
2022-10-29T07:03:16.578Z,99.99
2022-10-29T07:04:16.688Z,99.99
2022-10-29T07:05:16.563Z,99.99
2022-10-29T07:06:16.567Z,99.99
2022-10-29T07:07:16.614Z,99.99
2022-10-29T07:08:16.520Z,99.99
2022-10-29T07:09:16.513Z,99.99
2022-10-29T07:10:16.541Z,99.99
2022-10-29T07:11:16.468Z,99.99
2022-10-29T07:12:16.483Z,99.99
2022-10-29T07:13:16.454Z,99.99
2022-10-29T07:14:16.425Z,99.99
2022-10-29T07:15:17.336Z,99.99
2022-10-29T07:16:16.511Z,99.99
2022-10-29T07:17:16.390Z,99.99
2022-10-29T07:18:16.454Z,99.99
2022-10-29T07:19:16.353Z,99.99
2022-10-29T07:20:16.333Z,99.99
2022-10-29T07:21:16.355Z,99.99
2022-10-29T07:22:16.302Z,99.99
2022-10-29T07:23:16.372Z,99.99
2022-10-29T07:24:16.294Z,99.99
2022-10-29T07:25:16.263Z,99.99
2022-10-29T07:26:16.282Z,99.99
2022-10-29T07:27:16.294Z,99.99
2022-10-29T07:28:16.279Z,99.99
2022-10-29T07:29:16.224Z,99.99
2022-10-29T07:30:16.208Z,99.99
2022-10-29T07:31:16.239Z,99.99
2022-10-29T07:32:16.178Z,99.99
2022-10-29T07:33:16.169Z,99.99
2022-10-29T07:34:17.107Z,99.99
2022-10-29T07:35:16.182Z,99.99
2022-10-29T07:36:16.161Z,99.99
2022-10-29T07:37:16.124Z,99.99
2022-10-29T07:38:16.108Z,99.99
2022-10-29T07:39:16.174Z,99.99
2022-10-29T07:40:16.159Z,99.99
2022-10-29T07:41:16.712Z,99.99
2022-10-29T07:42:16.187Z,99.99
2022-10-29T07:43:16.051Z,99.99
2022-10-29T07:44:16.040Z,99.99
2022-10-29T07:45:16.035Z,99.99
2022-10-29T07:46:16.004Z,99.99
2022-10-29T07:47:16.006Z,99.99
2022-10-29T07:48:16.067Z,99.99
2022-10-29T07:49:15.983Z,99.99
2022-10-29T07:50:15.976Z,99.99
2022-10-29T07:51:15.951Z,99.99
2022-10-29T07:52:15.972Z,99.99
2022-10-29T07:53:15.964Z,99.99
2022-10-29T07:54:15.904Z,99.99
2022-10-29T07:55:15.890Z,99.99
2022-10-29T07:56:15.886Z,99.99
2022-10-29T07:57:15.855Z,99.99
2022-10-29T07:58:15.845Z,99.99
2022-10-29T07:59:15.839Z,99.99
2022-10-29T08:00:15.815Z,99.99
2022-10-29T08:01:15.865Z,99.99
2022-10-29T08:02:15.887Z,99.99
2022-10-29T08:03:15.775Z,99.99
2022-10-29T08:04:15.760Z,99.99
2022-10-29T08:05:15.737Z,99.99
2022-10-29T08:06:15.727Z,99.99
2022-10-29T08:07:15.913Z,99.99
2022-10-29T08:08:15.756Z,99.99
2022-10-29T08:09:15.756Z,99.99
2022-10-29T08:10:15.690Z,99.99
2022-10-29T08:11:15.660Z,99.99
2022-10-29T08:12:15.654Z,99.99
2022-10-29T08:13:15.641Z,99.99
2022-10-29T08:14:17.775Z,99.99
2022-10-29T08:15:15.605Z,99.99
2022-10-29T08:16:15.699Z,99.99
2022-10-29T08:17:15.627Z,99.99
2022-10-29T08:18:15.630Z,99.99
2022-10-29T08:19:15.559Z,99.99
2022-10-29T08:20:15.563Z,99.99
2022-10-29T08:21:15.538Z,99.99
2022-10-29T08:22:15.549Z,99.52
2022-10-29T08:23:15.601Z,99.52
2022-10-29T08:24:15.495Z,99.42
2022-10-29T08:25:15.533Z,98.41
2022-10-29T08:26:15.516Z,98.01
2022-10-29T08:27:15.470Z,98.21
2022-10-29T08:28:15.580Z,98.57
2022-10-29T08:29:15.623Z,98.67
2022-10-29T08:30:15.534Z,98.36
2022-10-29T08:31:15.487Z,98.36
2022-10-29T08:32:15.372Z,98.57
2022-10-29T08:33:15.365Z,98.67
2022-10-29T08:34:15.344Z,98.57
2022-10-29T08:35:15.347Z,98.57
2022-10-29T08:36:15.357Z,98.67
2022-10-29T08:37:15.423Z,98.72
2022-10-29T08:38:15.320Z,98.82
2022-10-29T08:39:15.383Z,98.93
2022-10-29T08:40:16.246Z,98.93
2022-10-29T08:41:15.598Z,97.77
2022-10-29T08:42:15.305Z,97.36
2022-10-29T08:43:15.258Z,97.47
2022-10-29T08:44:15.260Z,97.97
2022-10-29T08:45:15.223Z,98.07
2022-10-29T08:46:15.215Z,98.22
2022-10-29T08:47:15.202Z,98.13
2022-10-29T08:48:15.174Z,97.92
2022-10-29T08:49:15.153Z,96.61
2022-10-29T08:50:15.172Z,96.01
2022-10-29T08:51:15.212Z,95.20
2022-10-29T08:52:15.125Z,96.06
2022-10-29T08:53:23.713Z,95.46
2022-10-29T08:54:32.364Z,95.86
2022-10-29T08:55:16.077Z,95.21
2022-10-29T08:56:15.069Z,94.51
2022-10-29T08:57:15.089Z,93.50
2022-10-29T08:58:15.117Z,93.19
2022-10-29T08:59:15.047Z,93.40
2022-10-29T09:00:15.010Z,93.66
2022-10-29T09:01:15.096Z,93.35
2022-10-29T09:02:15.034Z,92.75
2022-10-29T09:03:14.985Z,90.84
2022-10-29T09:04:15.027Z,90.99
2022-10-29T09:05:15.020Z,91.19
2022-10-29T09:06:14.970Z,89.69
2022-10-29T09:07:14.920Z,89.69
2022-10-29T09:08:14.906Z,87.83
2022-10-29T09:09:14.879Z,88.64
2022-10-29T09:10:14.876Z,88.54
2022-10-29T09:11:14.990Z,85.48
2022-10-29T09:12:24.880Z,86.08
2022-10-29T09:13:14.835Z,85.28
2022-10-29T09:14:14.968Z,85.33
2022-10-29T09:15:17.196Z,84.63
2022-10-29T09:16:14.957Z,85.03
2022-10-29T09:17:15.726Z,83.93
2022-10-29T09:18:16.035Z,83.12
2022-10-29T09:19:15.364Z,83.83
2022-10-29T09:20:14.834Z,84.59
2022-10-29T09:21:15.155Z,84.39
2022-10-29T09:22:14.975Z,84.29
2022-10-29T09:23:14.771Z,84.29
2022-10-29T09:24:14.913Z,84.49
2022-10-29T09:25:18.779Z,83.99
2022-10-29T09:26:14.984Z,82.48
2022-10-29T09:27:15.397Z,82.98
2022-10-29T09:28:15.226Z,83.29
2022-10-29T09:29:14.677Z,83.99
2022-10-29T09:30:14.591Z,82.38
2022-10-29T09:31:14.575Z,82.75
2022-10-29T09:32:14.673Z,84.05
2022-10-29T09:33:14.553Z,84.55
2022-10-29T09:34:14.565Z,81.44
2022-10-29T09:35:14.509Z,81.04
2022-10-29T09:36:14.499Z,81.74
2022-10-29T09:37:14.489Z,81.34
2022-10-29T09:38:14.541Z,81.54
2022-10-29T09:39:14.542Z,81.70
2022-10-29T09:40:14.461Z,82.00
2022-10-29T09:41:14.643Z,82.10
2022-10-29T09:42:14.542Z,81.00
2022-10-29T09:43:14.500Z,82.00
2022-10-29T09:44:14.429Z,82.00
2022-10-29T09:45:14.384Z,82.51
2022-10-29T09:46:14.434Z,83.31
2022-10-29T09:47:14.389Z,83.91
2022-10-29T09:48:23.092Z,82.40
2022-10-29T09:49:14.325Z,83.51
2022-10-29T09:50:14.352Z,81.20
2022-10-29T09:51:14.314Z,81.80
2022-10-29T09:52:14.309Z,82.90
2022-10-29T09:53:14.289Z,80.66
2022-10-29T09:54:14.325Z,81.06
2022-10-29T09:55:14.289Z,79.55
2022-10-29T09:56:14.257Z,81.32
2022-10-29T09:57:14.249Z,78.92
2022-10-29T09:58:14.229Z,79.02
2022-10-29T09:59:14.208Z,79.02
2022-10-29T10:00:14.217Z,79.62
2022-10-29T10:01:14.279Z,80.02
2022-10-29T10:02:14.245Z,80.42
2022-10-29T10:03:14.247Z,81.79
2022-10-29T10:04:14.156Z,79.58
2022-10-29T10:05:14.134Z,78.28
2022-10-29T10:06:14.139Z,80.08
2022-10-29T10:07:14.091Z,80.88
2022-10-29T10:08:14.111Z,79.18
2022-10-29T10:09:14.115Z,78.38
2022-10-29T10:10:14.071Z,79.18
2022-10-29T10:11:14.084Z,78.28
2022-10-29T10:12:14.039Z,77.67
2022-10-29T10:13:17.072Z,77.87
2022-10-29T10:14:14.057Z,77.87
2022-10-29T10:15:14.028Z,78.98
2022-10-29T10:16:13.999Z,79.38
2022-10-29T10:17:13.974Z,79.38
2022-10-29T10:18:13.970Z,79.78
2022-10-29T10:19:14.000Z,78.68
2022-10-29T10:20:14.017Z,79.68
2022-10-29T10:21:13.932Z,80.15
2022-10-29T10:22:16.255Z,77.14
2022-10-29T10:23:13.911Z,77.04
2022-10-29T10:24:13.945Z,77.00
2022-10-29T10:25:13.897Z,76.56
2022-10-29T10:26:13.868Z,76.67
2022-10-29T10:27:13.850Z,75.33
2022-10-29T10:28:13.841Z,75.93
2022-10-29T10:29:13.844Z,74.73
2022-10-29T10:30:13.808Z,75.63
2022-10-29T10:31:13.784Z,76.09
2022-10-29T10:32:13.853Z,75.49
2022-10-29T10:33:13.866Z,74.99
2022-10-29T10:34:13.746Z,75.49
2022-10-29T10:35:13.773Z,75.23
2022-10-29T10:36:13.711Z,74.53
2022-10-29T10:37:13.716Z,75.13
2022-10-29T10:38:13.717Z,75.49
2022-10-29T10:39:13.792Z,76.89
2022-10-29T10:40:13.666Z,74.49
2022-10-29T10:41:14.381Z,74.85
2022-10-29T10:42:14.686Z,74.76
2022-10-29T10:43:13.650Z,74.55
2022-10-29T10:44:13.650Z,73.59
2022-10-29T10:45:13.626Z,73.69
2022-10-29T10:46:13.587Z,73.99
2022-10-29T10:47:13.863Z,74.59
2022-10-29T10:48:13.632Z,75.16
2022-10-29T10:49:13.559Z,75.56
2022-10-29T10:50:13.539Z,75.22
2022-10-29T10:51:13.529Z,75.52
2022-10-29T10:52:13.504Z,76.02
2022-10-29T10:53:13.503Z,78.12
2022-10-29T10:54:13.572Z,72.92
2022-10-29T10:55:13.464Z,73.75
2022-10-29T10:56:13.474Z,75.26
2022-10-29T10:57:13.465Z,74.05
2022-10-29T10:58:13.476Z,73.36
2022-10-29T10:59:13.447Z,72.79
2022-10-29T11:00:13.430Z,73.39
2022-10-29T11:01:13.451Z,74.09
2022-10-29T11:02:13.413Z,74.55
2022-10-29T11:03:13.451Z,73.66
2022-10-29T11:04:13.400Z,74.85
2022-10-29T11:05:13.348Z,74.76
2022-10-29T11:06:13.338Z,74.42
2022-10-29T11:07:13.290Z,74.62
2022-10-29T11:08:13.289Z,72.92
2022-10-29T11:09:13.278Z,72.62
2022-10-29T11:10:13.296Z,71.83
2022-10-29T11:11:13.270Z,72.82
2022-10-29T11:12:13.241Z,74.72
2022-10-29T11:13:13.266Z,74.12
2022-10-29T11:14:13.234Z,74.12
2022-10-29T11:15:13.207Z,74.22
2022-10-29T11:16:13.230Z,72.02
2022-10-29T11:17:13.165Z,72.32
2022-10-29T11:18:13.208Z,71.42
2022-10-29T11:19:13.140Z,72.13
2022-10-29T11:20:13.135Z,71.72
2022-10-29T11:21:13.134Z,73.22
2022-10-29T11:22:13.249Z,71.33
2022-10-29T11:23:13.086Z,71.62
2022-10-29T11:24:13.075Z,72.02
2022-10-29T11:25:13.077Z,71.22
2022-10-29T11:26:13.043Z,70.83
2022-10-29T11:27:13.044Z,71.69
2022-10-29T11:28:13.112Z,70.49
2022-10-29T11:29:12.983Z,70.19
2022-10-29T11:30:13.031Z,70.99
2022-10-29T11:31:20.684Z,70.39
2022-10-29T11:32:12.957Z,70.49
2022-10-29T11:33:12.937Z,70.26
2022-10-29T11:34:12.943Z,70.36
2022-10-29T11:35:12.924Z,70.26
2022-10-29T11:36:12.918Z,69.06
2022-10-29T11:37:20.944Z,70.06
2022-10-29T11:38:12.883Z,70.76
2022-10-29T11:39:12.876Z,69.26
2022-10-29T11:40:12.871Z,71.02
2022-10-29T11:41:12.972Z,70.03
2022-10-29T11:42:12.877Z,68.53
2022-10-29T11:43:12.848Z,69.02
2022-10-29T11:44:12.811Z,70.26
2022-10-29T11:45:12.788Z,69.53
2022-10-29T11:46:12.773Z,69.43
2022-10-29T11:47:20.282Z,69.16
2022-10-29T11:48:22.038Z,69.76
2022-10-29T11:49:12.719Z,68.73
2022-10-29T11:50:12.805Z,68.46
2022-10-29T11:51:12.710Z,69.26
2022-10-29T11:52:12.737Z,69.66
2022-10-29T11:53:12.720Z,69.86
2022-10-29T11:54:22.422Z,69.06
2022-10-29T11:55:12.648Z,68.93
2022-10-29T11:56:12.645Z,69.43
2022-10-29T11:57:12.619Z,69.32
2022-10-29T11:58:12.633Z,70.32
2022-10-29T11:59:12.638Z,69.82
2022-10-29T12:00:12.676Z,69.53
2022-10-29T12:01:12.632Z,69.13
2022-10-29T12:02:12.583Z,69.62
2022-10-29T12:03:12.556Z,69.32
2022-10-29T12:04:12.574Z,68.83
2022-10-29T12:05:12.573Z,69.23
2022-10-29T12:06:12.566Z,67.63
2022-10-29T12:07:12.506Z,69.20
2022-10-29T12:08:12.523Z,69.13
2022-10-29T12:09:12.524Z,70.49
2022-10-29T12:10:12.579Z,69.49
2022-10-29T12:11:12.504Z,70.99
2022-10-29T12:12:12.441Z,70.12
2022-10-29T12:13:12.424Z,70.32
2022-10-29T12:14:12.414Z,71.12
2022-10-29T12:15:12.506Z,68.93
2022-10-29T12:16:12.403Z,68.93
2022-10-29T12:17:12.441Z,68.33
2022-10-29T12:18:12.407Z,69.32
2022-10-29T12:19:12.348Z,69.20
2022-10-29T12:20:12.410Z,70.59
2022-10-29T12:21:12.367Z,72.08
2022-10-29T12:22:12.357Z,70.99
2022-10-29T12:23:15.161Z,71.69
2022-10-29T12:24:12.269Z,69.59
2022-10-29T12:25:12.254Z,68.19
2022-10-29T12:26:12.320Z,68.96
2022-10-29T12:27:12.281Z,70.45
2022-10-29T12:28:12.275Z,67.27
2022-10-29T12:29:12.210Z,67.43
2022-10-29T12:30:12.194Z,70.12
2022-10-29T12:31:12.260Z,69.23
2022-10-29T12:32:12.174Z,67.24
2022-10-29T12:33:12.153Z,67.24
2022-10-29T12:34:12.151Z,65.44
2022-10-29T12:35:12.150Z,65.94
2022-10-29T12:36:12.145Z,67.43
2022-10-29T12:37:12.249Z,67.27
2022-10-29T12:38:12.071Z,67.07
2022-10-29T12:39:12.083Z,68.53
2022-10-29T12:40:12.063Z,68.26
2022-10-29T12:41:12.038Z,66.57
2022-10-29T12:42:12.074Z,66.77
2022-10-29T12:43:12.022Z,67.27
2022-10-29T12:44:12.005Z,68.13
2022-10-29T12:45:12.008Z,67.43
2022-10-29T12:46:20.056Z,67.43
2022-10-29T12:47:12.956Z,69.09
2022-10-29T12:48:12.000Z,68.90
2022-10-29T12:49:12.016Z,68.56
2022-10-29T12:50:11.949Z,67.37
2022-10-29T12:51:11.900Z,66.67
2022-10-29T12:52:11.900Z,64.58
2022-10-29T12:53:11.876Z,63.39
2022-10-29T12:54:11.867Z,65.48
2022-10-29T12:55:11.872Z,65.58
2022-10-29T12:56:14.613Z,63.19
2022-10-29T12:57:11.865Z,63.39
2022-10-29T12:58:11.813Z,64.48
2022-10-29T12:59:11.821Z,63.89
2022-10-29T13:00:11.794Z,65.58
2022-10-29T13:01:11.931Z,65.98
2022-10-29T13:02:12.801Z,64.48